Time;durP1;ratioP1;P1;durP2;ratioP2;P2;SDS_P1;SDS_P2;PMS_P1;PMS_P2;Temp;Humidity;BMP_temperature;BMP_pressure;BME280_temperature;BME280_humidity;BME280_pressure;Samples;Min_cycle;Max_cycle;Signal;HPM_P1;HPM_P2
2023/09/03 00:02:12;;;;;;;6.60;3.90;;;;;;;-145.70;100.00;63560.63;5044047;28;20032;-68
2023/09/03 00:04:40;;;;;;;7.35;4.10;;;;;;;-145.70;100.00;63560.63;5023611;28;20129;-67
2023/09/03 00:07:06;;;;;;;7.47;4.03;;;;;;;-145.70;100.00;63560.63;5019446;28;20647;-68
2023/09/03 00:09:33;;;;;;;6.47;3.97;;;;;;;-145.70;100.00;63560.63;5024531;28;20037;-68
2023/09/03 00:12:01;;;;;;;6.20;3.97;;;;;;;-145.70;100.00;63560.63;5028390;28;20043;-68
2023/09/03 00:14:27;;;;;;;8.13;4.10;;;;;;;-145.70;100.00;63560.63;5028154;28;20086;-67
2023/09/03 00:16:52;;;;;;;5.97;3.83;;;;;;;-145.70;100.00;63560.63;5019950;28;20048;-69
2023/09/03 00:19:18;;;;;;;6.82;4.32;;;;;;;-145.70;100.00;63560.63;5022969;28;20469;-67
2023/09/03 00:21:43;;;;;;;6.15;4.03;;;;;;;-145.70;100.00;63560.63;5023277;28;20033;-69
2023/09/03 00:24:11;;;;;;;8.70;4.38;;;;;;;-145.70;100.00;63560.63;5039460;28;20078;-68
2023/09/03 00:26:39;;;;;;;6.75;4.45;;;;;;;-145.70;100.00;63560.63;5026407;28;20197;-67
2023/09/03 00:29:04;;;;;;;8.18;4.13;;;;;;;-145.70;100.00;63560.63;5026429;28;20450;-69
2023/09/03 00:31:30;;;;;;;6.53;4.18;;;;;;;-145.70;100.00;63560.63;5010445;28;20086;-68
2023/09/03 00:33:55;;;;;;;7.25;3.88;;;;;;;-145.70;100.00;63560.63;5027717;28;20037;-67
2023/09/03 00:36:23;;;;;;;7.95;4.18;;;;;;;-145.70;100.00;63560.63;5025218;28;20551;-68
2023/09/03 00:38:52;;;;;;;8.30;4.30;;;;;;;-145.70;100.00;63560.63;5030359;28;20487;-66
2023/09/03 00:41:18;;;;;;;9.05;4.22;;;;;;;-145.70;100.00;63560.63;5026465;28;20041;-67
2023/09/03 00:43:43;;;;;;;6.45;3.90;;;;;;;-145.70;100.00;63560.63;5040445;28;20913;-66
2023/09/03 00:46:09;;;;;;;8.20;4.35;;;;;;;-145.70;100.00;63560.63;5046014;28;20033;-67
2023/09/03 00:48:35;;;;;;;6.60;4.30;;;;;;;-145.70;100.00;63560.63;5022514;28;20809;-68
2023/09/03 00:51:07;;;;;;;7.60;4.20;;;;;;;-145.70;100.00;63560.63;5028074;28;20675;-67
2023/09/03 00:53:36;;;;;;;7.22;4.22;;;;;;;-145.70;100.00;63560.63;5045407;28;20044;-67
2023/09/03 00:56:04;;;;;;;7.38;3.80;;;;;;;-145.70;100.00;63560.63;5032696;28;20025;-70
2023/09/03 00:58:29;;;;;;;7.88;4.20;;;;;;;-145.70;100.00;63560.63;5042092;28;20082;-67
2023/09/03 01:00:56;;;;;;;7.00;3.80;;;;;;;-145.70;100.00;63560.63;5013620;28;20036;-67
2023/09/03 01:03:22;;;;;;;6.85;3.67;;;;;;;-145.70;100.00;63560.63;5041217;28;20844;-68
2023/09/03 01:05:49;;;;;;;7.82;4.13;;;;;;;-145.70;100.00;63560.63;5047200;28;20044;-68
2023/09/03 01:08:15;;;;;;;8.18;4.47;;;;;;;-145.70;100.00;63560.63;5011267;28;20085;-68
2023/09/03 01:11:05;;;;;;;6.95;4.15;;;;;;;-145.70;100.00;63560.63;5035364;28;20537;-67
2023/09/03 01:13:30;;;;;;;6.85;3.90;;;;;;;-145.70;100.00;63560.63;5021103;28;20033;-67
2023/09/03 01:16:02;;;;;;;6.75;3.95;;;;;;;-145.70;100.00;63560.63;5043383;28;20043;-68
2023/09/03 01:18:28;;;;;;;6.88;3.72;;;;;;;-145.70;100.00;63560.63;5042628;28;20078;-67
2023/09/03 01:20:58;;;;;;;6.13;4.20;;;;;;;-145.70;100.00;63560.63;5040954;28;20553;-67
2023/09/03 01:23:28;;;;;;;9.05;4.05;;;;;;;-145.70;100.00;63560.63;5032496;28;20039;-68
2023/09/03 01:26:31;;;;;;;6.43;3.88;;;;;;;-145.70;100.00;63560.63;5038648;28;20054;-68
2023/09/03 01:29:02;;;;;;;7.68;4.20;;;;;;;-145.70;100.00;63560.63;5047955;28;20045;-68
2023/09/03 01:31:30;;;;;;;6.13;3.83;;;;;;;-145.70;100.00;63560.63;5014260;28;20116;-67
2023/09/03 01:34:02;;;;;;;6.05;3.85;;;;;;;-145.70;100.00;63560.63;5031150;28;20037;-68
2023/09/03 01:36:34;;;;;;;6.95;4.10;;;;;;;-145.70;100.00;63560.63;5017102;28;20484;-67
2023/09/03 01:39:03;;;;;;;8.20;4.05;;;;;;;-145.70;100.00;63560.63;5028059;28;20041;-68
2023/09/03 01:41:34;;;;;;;7.75;4.28;;;;;;;-145.70;100.00;63560.63;5024981;28;20025;-68
2023/09/03 01:43:59;;;;;;;7.57;4.03;;;;;;;-145.70;100.00;63560.63;5010202;28;20033;-68
2023/09/03 01:46:49;;;;;;;8.40;4.13;;;;;;;-145.70;100.00;63560.63;5023163;28;20094;-68
2023/09/03 01:49:40;;;;;;;6.85;4.20;;;;;;;-145.70;100.00;63560.63;5020968;28;20040;-69
2023/09/03 01:52:21;;;;;;;8.82;4.20;;;;;;;-145.70;100.00;63560.63;5037091;28;20063;-69
2023/09/03 01:54:48;;;;;;;6.38;4.10;;;;;;;-145.70;100.00;63560.63;5035024;28;20037;-69
2023/09/03 01:57:18;;;;;;;6.90;4.20;;;;;;;-145.70;100.00;63560.63;5032861;28;20032;-69
2023/09/03 01:59:45;;;;;;;6.20;3.95;;;;;;;-145.70;100.00;63560.63;5039385;28;20025;-69
2023/09/03 02:02:12;;;;;;;7.38;3.80;;;;;;;-145.70;100.00;63560.63;5033244;28;20113;-67
2023/09/03 02:04:37;;;;;;;6.50;4.03;;;;;;;-145.70;100.00;63560.63;5015003;28;20045;-68
2023/09/03 02:07:06;;;;;;;6.95;4.10;;;;;;;-145.70;100.00;63560.63;5031591;28;20025;-68
2023/09/03 02:09:32;;;;;;;6.93;4.30;;;;;;;-145.70;100.00;63560.63;5030424;28;20064;-67
2023/09/03 02:12:02;;;;;;;7.43;4.00;;;;;;;-145.70;100.00;63560.63;5046605;28;20140;-67
2023/09/03 02:14:27;;;;;;;6.78;4.25;;;;;;;-145.70;100.00;63560.63;5031388;28;20040;-68
2023/09/03 02:16:53;;;;;;;6.53;4.05;;;;;;;-145.70;100.00;63560.63;5028645;28;20025;-68
2023/09/03 02:19:18;;;;;;;8.50;3.92;;;;;;;-145.70;100.00;63560.63;5005038;28;20230;-68
2023/09/03 02:21:44;;;;;;;7.15;4.03;;;;;;;-145.70;100.00;63560.63;5023624;28;20032;-68
2023/09/03 02:24:09;;;;;;;7.15;4.10;;;;;;;-145.70;100.00;63560.63;5023465;28;20033;-67
2023/09/03 02:26:44;;;;;;;6.90;3.70;;;;;;;-145.70;100.00;63560.63;5025643;28;20688;-68
2023/09/03 02:29:10;;;;;;;7.32;4.07;;;;;;;-145.70;100.00;63560.63;5020676;28;20041;-69
2023/09/03 02:31:35;;;;;;;8.45;4.00;;;;;;;-145.70;100.00;63560.63;5022601;28;20025;-66
2023/09/03 02:34:03;;;;;;;7.40;4.10;;;;;;;-145.70;100.00;63560.63;5024616;28;20047;-68
2023/09/03 02:36:30;;;;;;;7.28;4.18;;;;;;;-145.70;100.00;63560.63;5027915;28;20059;-67
2023/09/03 02:39:04;;;;;;;6.78;4.28;;;;;;;-145.70;100.00;63560.63;5028998;28;20029;-67
2023/09/03 02:41:30;;;;;;;8.90;4.40;;;;;;;-145.70;100.00;63560.63;5043827;28;20044;-67
2023/09/03 02:44:01;;;;;;;9.65;4.50;;;;;;;-145.70;100.00;63560.63;5032283;28;20037;-69
2023/09/03 02:46:26;;;;;;;7.28;4.05;;;;;;;-145.70;100.00;63560.63;5018366;28;20942;-67
2023/09/03 02:48:59;;;;;;;7.60;4.38;;;;;;;-145.70;100.00;63560.63;5018975;28;20037;-67
2023/09/03 02:51:25;;;;;;;6.18;3.95;;;;;;;-145.70;100.00;63560.63;5018693;28;20078;-68
2023/09/03 02:53:54;;;;;;;6.32;4.10;;;;;;;-145.70;100.00;63560.63;5007209;28;20815;-68
2023/09/03 02:56:21;;;;;;;8.15;4.13;;;;;;;-145.70;100.00;63560.63;5037800;28;20021;-70
2023/09/03 02:58:48;;;;;;;8.18;4.60;;;;;;;-145.70;100.00;63560.63;5007331;28;20063;-69
2023/09/03 03:01:15;;;;;;;7.25;4.30;;;;;;;-145.70;100.00;63560.63;5035978;28;20860;-68
2023/09/03 03:03:44;;;;;;;8.50;4.38;;;;;;;-145.70;100.00;63560.63;5018840;28;20491;-68
2023/09/03 03:06:09;;;;;;;6.97;4.10;;;;;;;-145.70;100.00;63560.63;5023012;28;20045;-68
2023/09/03 03:08:35;;;;;;;7.75;4.45;;;;;;;-145.70;100.00;63560.63;5023039;28;20287;-68
2023/09/03 03:11:11;;;;;;;7.35;3.63;;;;;;;-145.70;100.00;63560.63;5008935;28;20468;-68
2023/09/03 03:13:43;;;;;;;7.00;3.95;;;;;;;-145.70;100.00;63560.63;5019668;28;20063;-67
2023/09/03 03:16:14;;;;;;;7.40;4.18;;;;;;;-145.70;100.00;63560.63;5040087;28;20060;-68
2023/09/03 03:18:41;;;;;;;8.60;4.20;;;;;;;-145.70;100.00;63560.63;5021166;28;20088;-68
2023/09/03 03:21:18;;;;;;;6.63;4.03;;;;;;;-145.70;100.00;63560.63;5025280;28;20029;-69
2023/09/03 03:23:47;;;;;;;7.20;4.43;;;;;;;-145.70;100.00;63560.63;5021650;28;20135;-68
2023/09/03 03:26:12;;;;;;;7.43;4.07;;;;;;;-145.70;100.00;63560.63;5006254;28;20357;-68
2023/09/03 03:28:40;;;;;;;6.65;3.70;;;;;;;-145.70;100.00;63560.63;5026878;28;20083;-69
2023/09/03 03:31:15;;;;;;;6.43;4.00;;;;;;;-145.70;100.00;63560.63;5004169;28;20126;-68
2023/09/03 03:33:44;;;;;;;6.30;4.10;;;;;;;-145.70;100.00;63560.63;5024702;28;20066;-66
2023/09/03 03:36:13;;;;;;;6.68;4.20;;;;;;;-145.70;100.00;63560.63;5021299;28;20024;-69
2023/09/03 03:38:38;;;;;;;7.23;4.00;;;;;;;-145.70;100.00;63560.63;5025038;28;20049;-68
2023/09/03 03:41:11;;;;;;;8.05;4.15;;;;;;;-145.70;100.00;63560.63;5024481;28;20283;-65
2023/09/03 03:43:38;;;;;;;6.50;3.95;;;;;;;-145.70;100.00;63560.63;5043691;28;20036;-69
2023/09/03 03:46:05;;;;;;;8.20;3.83;;;;;;;-145.70;100.00;63560.63;5025499;28;20140;-69
2023/09/03 03:48:33;;;;;;;7.72;4.13;;;;;;;-145.70;100.00;63560.63;5038629;28;20025;-68
2023/09/03 03:50:59;;;;;;;6.85;4.00;;;;;;;-145.70;100.00;63560.63;5006993;28;20033;-66
2023/09/03 03:53:24;;;;;;;7.53;4.20;;;;;;;-145.70;100.00;63560.63;5025747;28;20043;-68
2023/09/03 03:56:00;;;;;;;7.05;4.00;;;;;;;-145.70;100.00;63560.63;5028099;28;20672;-67
2023/09/03 03:58:28;;;;;;;6.85;3.78;;;;;;;-145.70;100.00;63560.63;5022025;28;20145;-68
2023/09/03 04:00:53;;;;;;;7.40;4.32;;;;;;;-145.70;100.00;63560.63;5014181;28;20037;-68
2023/09/03 04:03:19;;;;;;;8.80;4.43;;;;;;;-145.70;100.00;63560.63;5010819;28;20741;-68
2023/09/03 04:05:44;;;;;;;8.65;4.57;;;;;;;-145.70;100.00;63560.63;5009350;28;20124;-68
2023/09/03 04:08:12;;;;;;;6.95;4.20;;;;;;;-145.70;100.00;63560.63;5023834;28;20596;-66
2023/09/03 04:10:37;;;;;;;7.43;4.18;;;;;;;-145.70;100.00;63560.63;5043957;28;20025;-68
2023/09/03 04:13:06;;;;;;;7.18;3.88;;;;;;;-145.70;100.00;63560.63;5006639;28;20036;-68
2023/09/03 04:15:31;;;;;;;7.82;4.28;;;;;;;-145.70;100.00;63560.63;5037064;28;20049;-67
2023/09/03 04:17:59;;;;;;;8.35;4.28;;;;;;;-145.70;100.00;63560.63;5050508;28;20036;-67
2023/09/03 04:20:24;;;;;;;7.13;3.85;;;;;;;-145.70;100.00;63560.63;5050302;28;20045;-69
2023/09/03 04:22:50;;;;;;;6.65;4.05;;;;;;;-145.70;100.00;63560.63;5036195;28;20029;-67
2023/09/03 04:25:15;;;;;;;7.38;4.20;;;;;;;-145.70;100.00;63560.63;5033076;28;20049;-68
2023/09/03 04:27:41;;;;;;;6.70;3.80;;;;;;;-145.70;100.00;63560.63;5018601;28;20095;-67
2023/09/03 04:30:07;;;;;;;7.20;4.10;;;;;;;-145.70;100.00;63560.63;5049191;28;20037;-68
2023/09/03 04:32:32;;;;;;;6.22;3.97;;;;;;;-145.70;100.00;63560.63;5051998;28;20056;-67
2023/09/03 04:34:58;;;;;;;7.20;4.53;;;;;;;-145.70;100.00;63560.63;5049195;28;20945;-70
2023/09/03 04:37:23;;;;;;;6.15;4.30;;;;;;;-145.70;100.00;63560.63;5031517;28;20040;-67
2023/09/03 04:39:49;;;;;;;7.57;4.70;;;;;;;-145.70;100.00;63560.63;5030668;28;20063;-68
2023/09/03 04:42:15;;;;;;;7.00;3.95;;;;;;;-145.70;100.00;63560.63;5047040;28;20067;-69
2023/09/03 04:44:42;;;;;;;7.97;3.95;;;;;;;-145.70;100.00;63560.63;5043905;28;20098;-70
2023/09/03 04:47:07;;;;;;;7.00;4.07;;;;;;;-145.70;100.00;63560.63;5012875;28;20392;-68
2023/09/03 04:49:33;;;;;;;7.47;4.13;;;;;;;-145.70;100.00;63560.63;5032018;28;20120;-67
2023/09/03 04:51:58;;;;;;;7.20;3.95;;;;;;;-145.70;100.00;63560.63;5034888;28;20153;-68
2023/09/03 04:54:24;;;;;;;7.50;4.38;;;;;;;-145.70;100.00;63560.63;5047204;28;20133;-68
2023/09/03 04:56:52;;;;;;;6.95;4.30;;;;;;;-145.70;100.00;63560.63;5034080;28;20055;-68
2023/09/03 04:59:17;;;;;;;8.45;4.50;;;;;;;-145.70;100.00;63560.63;5054315;28;20033;-67
2023/09/03 05:01:46;;;;;;;6.38;3.83;;;;;;;-145.70;100.00;63560.63;5038637;28;20037;-68
2023/09/03 05:04:13;;;;;;;8.85;3.92;;;;;;;-145.70;100.00;63560.63;5034591;28;20036;-68
2023/09/03 05:06:39;;;;;;;7.20;4.13;;;;;;;-145.70;100.00;63560.63;5022365;28;20037;-67
2023/09/03 05:09:08;;;;;;;6.22;3.83;;;;;;;-145.70;100.00;63560.63;5037207;28;20032;-69
2023/09/03 05:11:42;;;;;;;7.05;4.45;;;;;;;-145.70;100.00;63560.63;5035337;28;20649;-69
2023/09/03 05:14:09;;;;;;;7.53;4.30;;;;;;;-145.70;100.00;63560.63;5035231;28;20093;-67
2023/09/03 05:16:35;;;;;;;8.68;3.90;;;;;;;-145.70;100.00;63560.63;5037699;28;20116;-68
2023/09/03 05:19:04;;;;;;;6.40;4.40;;;;;;;-145.70;100.00;63560.63;5031589;28;20055;-66
2023/09/03 05:21:30;;;;;;;;;;;;;;;-145.70;100.00;63560.63;5035585;28;20685;-67
2023/09/03 05:23:55;;;;;;;6.65;4.22;;;;;;;-145.70;100.00;63560.63;5039844;28;19920;-70
2023/09/03 05:26:25;;;;;;;7.97;4.15;;;;;;;-145.70;100.00;63560.63;5020934;28;20033;-67
2023/09/03 05:28:51;;;;;;;8.43;4.22;;;;;;;-145.70;100.00;63560.63;5029958;28;20059;-65
2023/09/03 05:31:16;;;;;;;7.70;4.18;;;;;;;-145.70;100.00;63560.63;5014195;28;20033;-68
2023/09/03 05:33:42;;;;;;;6.28;4.20;;;;;;;-145.70;100.00;63560.63;5035834;28;20036;-67
2023/09/03 05:36:07;;;;;;;8.50;4.30;;;;;;;-145.70;100.00;63560.63;5018550;28;20044;-67
2023/09/03 05:38:35;;;;;;;6.63;4.30;;;;;;;-145.70;100.00;63560.63;5022043;28;20131;-67
2023/09/03 05:41:06;;;;;;;8.18;4.85;;;;;;;-145.70;100.00;63560.63;5037988;28;20025;-68
2023/09/03 05:43:33;;;;;;;6.50;4.15;;;;;;;-145.70;100.00;63560.63;5029644;28;20120;-69
2023/09/03 05:46:00;;;;;;;6.70;4.13;;;;;;;-145.70;100.00;63560.63;5037813;28;20051;-69
2023/09/03 05:48:25;;;;;;;7.30;4.25;;;;;;;-145.70;100.00;63560.63;5015525;28;20459;-69
2023/09/03 05:51:03;;;;;;;6.68;4.10;;;;;;;-145.70;100.00;63560.63;5033806;28;20025;-70
2023/09/03 05:53:35;;;;;;;6.78;3.92;;;;;;;-145.70;100.00;63560.63;5015094;28;20635;-68
2023/09/03 05:56:10;;;;;;;8.48;4.25;;;;;;;-145.70;100.00;63560.63;5011044;28;20029;-66
2023/09/03 05:58:36;;;;;;;7.20;4.22;;;;;;;-145.70;100.00;63560.63;5041285;28;20051;-68
2023/09/03 06:01:09;;;;;;;6.75;4.18;;;;;;;-145.70;100.00;63560.63;5037332;28;20029;-69
2023/09/03 06:03:38;;;;;;;5.88;3.70;;;;;;;-145.70;100.00;63560.63;5044048;28;20107;-67
2023/09/03 06:06:15;;;;;;;8.13;4.03;;;;;;;-145.70;100.00;63560.63;5026065;28;21798;-67
2023/09/03 06:08:41;;;;;;;6.95;4.22;;;;;;;-145.70;100.00;63560.63;5023946;28;20617;-67
2023/09/03 06:11:09;;;;;;;8.25;4.15;;;;;;;-145.70;100.00;63560.63;5017306;28;20032;-67
2023/09/03 06:13:35;;;;;;;6.00;3.83;;;;;;;-145.70;100.00;63560.63;5037939;28;20083;-68
2023/09/03 06:16:00;;;;;;;7.88;4.15;;;;;;;-145.70;100.00;63560.63;5032094;28;20226;-68
2023/09/03 06:18:26;;;;;;;8.57;4.50;;;;;;;-145.70;100.00;63560.63;5033539;28;20041;-68
2023/09/03 06:20:53;;;;;;;7.05;4.10;;;;;;;-145.70;100.00;63560.63;5036552;28;20041;-68
2023/09/03 06:23:20;;;;;;;6.43;4.20;;;;;;;-145.70;100.00;63560.63;5019534;28;20037;-68
2023/09/03 06:25:48;;;;;;;6.50;3.90;;;;;;;-145.70;100.00;63560.63;5035184;28;20021;-68
2023/09/03 06:28:16;;;;;;;6.70;3.90;;;;;;;-145.70;100.00;63560.63;5034437;28;20205;-68
2023/09/03 06:30:42;;;;;;;6.65;4.15;;;;;;;-145.70;100.00;63560.63;5039241;28;20036;-68
2023/09/03 06:33:07;;;;;;;8.05;4.10;;;;;;;-145.70;100.00;63560.63;5021152;28;20033;-68
2023/09/03 06:35:37;;;;;;;8.85;4.25;;;;;;;-145.70;100.00;63560.63;5035915;28;20029;-69
2023/09/03 06:38:03;;;;;;;6.95;4.00;;;;;;;-145.70;100.00;63560.63;5035496;28;20037;-67
2023/09/03 06:40:31;;;;;;;8.30;4.43;;;;;;;-145.70;100.00;63560.63;5031878;28;20508;-69
2023/09/03 06:42:58;;;;;;;6.47;3.83;;;;;;;-145.70;100.00;63560.63;5032774;28;20032;-68
2023/09/03 06:45:24;;;;;;;8.00;3.85;;;;;;;-145.70;100.00;63560.63;5033338;28;20040;-67
2023/09/03 06:47:49;;;;;;;7.20;3.95;;;;;;;-145.70;100.00;63560.63;5037596;28;20037;-68
2023/09/03 06:50:16;;;;;;;7.90;4.32;;;;;;;-145.70;100.00;63560.63;5038040;28;20037;-67
2023/09/03 06:52:44;;;;;;;6.28;4.03;;;;;;;-145.70;100.00;63560.63;5053750;28;20476;-68
2023/09/03 06:55:12;;;;;;;6.55;4.10;;;;;;;-145.70;100.00;63560.63;5040635;28;20099;-70
2023/09/03 06:57:37;;;;;;;9.07;4.03;;;;;;;-145.70;100.00;63560.63;5025934;28;20056;-68
2023/09/03 07:00:05;;;;;;;7.70;4.00;;;;;;;-145.70;100.00;63560.63;5038295;28;20445;-69
2023/09/03 07:02:33;;;;;;;5.80;3.88;;;;;;;-145.70;100.00;63560.63;5036409;28;20072;-68
2023/09/03 07:05:00;;;;;;;7.20;3.58;;;;;;;-145.70;100.00;63560.63;5035783;28;20044;-69
2023/09/03 07:07:26;;;;;;;6.80;3.92;;;;;;;-145.70;100.00;63560.63;5053137;28;20511;-69
2023/09/03 07:09:51;;;;;;;8.55;3.85;;;;;;;-145.70;100.00;63560.63;5036198;28;20048;-69
2023/09/03 07:12:20;;;;;;;6.70;3.85;;;;;;;-145.70;100.00;63560.63;5023141;28;20024;-69
2023/09/03 07:14:46;;;;;;;6.22;3.42;;;;;;;-145.70;100.00;63560.63;5039899;28;20165;-69
2023/09/03 07:17:14;;;;;;;9.05;4.18;;;;;;;-145.70;100.00;63560.63;5037658;28;20051;-68
2023/09/03 07:19:41;;;;;;;6.30;3.72;;;;;;;-145.70;100.00;63560.63;5018111;28;20074;-68
2023/09/03 07:22:09;;;;;;;6.35;3.50;;;;;;;-145.70;100.00;63560.63;5038609;28;20083;-69
2023/09/03 07:24:35;;;;;;;6.72;3.90;;;;;;;-145.70;100.00;63560.63;5038443;28;20029;-69
2023/09/03 07:27:00;;;;;;;5.53;3.40;;;;;;;-145.70;100.00;63560.63;5035785;28;20040;-67
2023/09/03 07:29:26;;;;;;;6.68;3.45;;;;;;;-145.70;100.00;63560.63;5034077;28;20033;-67
2023/09/03 07:31:53;;;;;;;8.60;3.33;;;;;;;-145.70;100.00;63560.63;5021939;28;20035;-68
2023/09/03 07:34:21;;;;;;;7.20;3.50;;;;;;;-145.70;100.00;63560.63;5027548;28;20031;-68
2023/09/03 07:36:46;;;;;;;7.60;3.70;;;;;;;-145.70;100.00;63560.63;5018718;28;20032;-68
2023/09/03 07:39:12;;;;;;;7.28;3.65;;;;;;;-145.70;100.00;63560.63;5038666;28;20033;-67
2023/09/03 07:41:38;;;;;;;5.93;3.65;;;;;;;-145.70;100.00;63560.63;5033339;28;20025;-68
2023/09/03 07:44:04;;;;;;;6.47;3.60;;;;;;;-145.70;100.00;63560.63;5039192;28;20439;-68
2023/09/03 07:46:29;;;;;;;6.05;3.20;;;;;;;-145.70;100.00;63560.63;5032191;28;20070;-69
2023/09/03 07:48:54;;;;;;;8.98;3.72;;;;;;;-145.70;100.00;63560.63;5035716;28;20028;-69
2023/09/03 07:51:20;;;;;;;7.03;4.00;;;;;;;-145.70;100.00;63560.63;5036135;28;20102;-69
2023/09/03 07:53:49;;;;;;;7.15;4.25;;;;;;;-145.70;100.00;63560.63;5034866;28;20013;-69
2023/09/03 07:56:15;;;;;;;7.40;4.47;;;;;;;-145.70;100.00;63560.63;5037035;28;20067;-69
2023/09/03 07:58:43;;;;;;;8.60;4.40;;;;;;;-145.70;100.00;63560.63;5034843;28;20125;-68
2023/09/03 08:01:12;;;;;;;9.18;5.20;;;;;;;-145.70;100.00;63560.63;5022744;28;20039;-68
2023/09/03 08:03:38;;;;;;;8.77;5.47;;;;;;;-145.70;100.00;63560.63;5038624;28;20108;-68
2023/09/03 08:06:04;;;;;;;8.18;5.28;;;;;;;-145.70;100.00;63560.63;5039030;28;20106;-68
2023/09/03 08:08:30;;;;;;;13.85;8.32;;;;;;;-145.70;100.00;63560.63;5018542;28;20037;-68
2023/09/03 08:11:00;;;;;;;8.90;5.50;;;;;;;-145.70;100.00;63560.63;5022964;28;21141;-68
2023/09/03 08:13:29;;;;;;;10.32;5.95;;;;;;;-145.70;100.00;63560.63;5036494;28;20547;-67
2023/09/03 08:15:54;;;;;;;8.67;5.27;;;;;;;-145.70;100.00;63560.63;5035630;28;20044;-69
2023/09/03 08:18:21;;;;;;;8.63;5.65;;;;;;;-145.70;100.00;63560.63;5026613;28;20846;-68
2023/09/03 08:20:49;;;;;;;9.25;5.30;;;;;;;-145.70;100.00;63560.63;5034873;28;20061;-68
2023/09/03 08:23:18;;;;;;;7.57;5.07;;;;;;;-145.70;100.00;63560.63;5036186;28;20060;-67
2023/09/03 08:25:43;;;;;;;8.18;5.28;;;;;;;-145.70;100.00;63560.63;5050352;28;20025;-69
2023/09/03 08:28:14;;;;;;;7.70;4.35;;;;;;;-145.70;100.00;63560.63;5034390;28;20047;-69
2023/09/03 08:30:39;;;;;;;7.82;4.35;;;;;;;-145.70;100.00;63560.63;5033613;28;20052;-68
2023/09/03 08:33:05;;;;;;;5.95;3.25;;;;;;;-145.70;100.00;63560.63;5034013;28;20480;-68
2023/09/03 08:35:30;;;;;;;6.32;3.60;;;;;;;-145.70;100.00;63560.63;5033776;28;20574;-67
2023/09/03 08:37:56;;;;;;;7.35;3.95;;;;;;;-145.70;100.00;63560.63;5019582;28;20033;-69
2023/09/03 08:40:21;;;;;;;7.32;4.53;;;;;;;-145.70;100.00;63560.63;5037762;28;20064;-67
2023/09/03 08:42:49;;;;;;;7.53;4.70;;;;;;;-145.70;100.00;63560.63;5032496;28;20061;-67
2023/09/03 08:45:19;;;;;;;6.18;3.72;;;;;;;-145.70;100.00;63560.63;5021515;28;20044;-67
2023/09/03 08:47:45;;;;;;;;;;;;;;;-145.70;100.00;63560.63;5046343;28;20029;-68
2023/09/03 08:50:12;;;;;;;8.55;4.28;;;;;;;-145.70;100.00;63560.63;5036228;28;19924;-68
2023/09/03 08:52:41;;;;;;;6.53;3.80;;;;;;;-145.70;100.00;63560.63;5034995;28;20079;-69
2023/09/03 08:55:09;;;;;;;6.28;3.38;;;;;;;-145.70;100.00;63560.63;5018913;28;20029;-68
2023/09/03 08:57:35;;;;;;;6.65;3.10;;;;;;;-145.70;100.00;63560.63;5023216;28;20772;-67
2023/09/03 09:00:10;;;;;;;6.18;3.50;;;;;;;-145.70;100.00;63560.63;5031317;28;20063;-68
2023/09/03 09:02:38;;;;;;;7.38;3.13;;;;;;;-145.70;100.00;63560.63;5037377;28;20037;-68
2023/09/03 09:05:06;;;;;;;5.68;3.10;;;;;;;-145.70;100.00;63560.63;5035081;28;20032;-68
2023/09/03 09:07:32;;;;;;;9.20;3.20;;;;;;;-145.70;100.00;63560.63;5038261;28;20068;-68
2023/09/03 09:10:01;;;;;;;6.93;3.17;;;;;;;-145.70;100.00;63560.63;5025473;28;20796;-68
2023/09/03 09:12:37;;;;;;;6.18;3.05;;;;;;;-145.70;100.00;63560.63;5039254;28;20043;-67
2023/09/03 09:15:05;;;;;;;5.57;3.10;;;;;;;-145.70;100.00;63560.63;5036010;28;20067;-68
2023/09/03 09:17:41;;;;;;;7.07;3.40;;;;;;;-145.70;100.00;63560.63;5035870;28;20047;-66
2023/09/03 09:20:08;;;;;;;6.90;3.80;;;;;;;-145.70;100.00;63560.63;5039702;28;20025;-66
2023/09/03 09:22:49;;;;;;;6.07;3.03;;;;;;;-145.70;100.00;63560.63;5034818;28;20037;-66
2023/09/03 09:25:25;;;;;;;5.38;3.03;;;;;;;-145.70;100.00;63560.63;5043164;28;20120;-65
2023/09/03 09:27:55;;;;;;;5.43;2.97;;;;;;;-145.70;100.00;63560.63;5035265;28;20613;-66
2023/09/03 09:30:22;;;;;;;6.28;2.92;;;;;;;-145.70;100.00;63560.63;5039441;28;20030;-67
2023/09/03 09:32:50;;;;;;;5.47;2.88;;;;;;;-145.70;100.00;63560.63;5039269;28;20032;-67
2023/09/03 09:35:24;;;;;;;6.25;2.95;;;;;;;-145.70;100.00;63560.63;5036584;28;20031;-67
2023/09/03 09:37:49;;;;;;;6.03;3.22;;;;;;;-145.70;100.00;63560.63;5037067;28;20029;-66
2023/09/03 09:40:25;;;;;;;6.90;3.72;;;;;;;-145.70;100.00;63560.63;5035365;28;20033;-69
2023/09/03 09:42:56;;;;;;;5.82;3.45;;;;;;;-145.70;100.00;63560.63;5033892;28;20711;-69
2023/09/03 09:45:24;;;;;;;5.57;3.15;;;;;;;-145.70;100.00;63560.63;5037494;28;20582;-69
2023/09/03 09:48:12;;;;;;;8.10;3.30;;;;;;;-145.70;100.00;63560.63;5019455;28;20028;-67
2023/09/03 09:50:43;;;;;;;7.43;4.25;;;;;;;-145.70;100.00;63560.63;5015479;28;20125;-68
2023/09/03 09:53:38;;;;;;;6.88;3.05;;;;;;;-145.70;100.00;63560.63;5034804;28;20033;-69
2023/09/03 09:56:07;;;;;;;5.97;3.33;;;;;;;-145.70;100.00;63560.63;5012924;28;20047;-67
2023/09/03 09:58:40;;;;;;;5.25;2.50;;;;;;;-145.70;100.00;63560.63;5033261;28;20546;-68
2023/09/03 10:01:07;;;;;;;6.75;3.45;;;;;;;-145.70;100.00;63560.63;5036834;28;20457;-67
2023/09/03 10:03:46;;;;;;;6.25;3.00;;;;;;;-145.70;100.00;63560.63;5038045;28;20078;-69
2023/09/03 10:06:13;;;;;;;5.90;3.03;;;;;;;-145.70;100.00;63560.63;5036090;28;20245;-68
2023/09/03 10:08:39;;;;;;;5.90;3.38;;;;;;;-145.70;100.00;63560.63;5021379;28;20040;-67
2023/09/03 10:11:04;;;;;;;5.95;3.00;;;;;;;-145.70;100.00;63560.63;5035106;28;20044;-67
2023/09/03 10:13:31;;;;;;;7.00;3.25;;;;;;;-145.70;100.00;63560.63;5019492;28;20041;-65
2023/09/03 10:16:02;;;;;;;6.88;3.60;;;;;;;-145.70;100.00;63560.63;5053039;28;20084;-67
2023/09/03 10:18:27;;;;;;;5.15;3.10;;;;;;;-145.70;100.00;63560.63;5036812;28;20029;-68
2023/09/03 10:20:54;;;;;;;6.25;3.05;;;;;;;-145.70;100.00;63560.63;5034427;28;20037;-65
2023/09/03 10:23:21;;;;;;;5.38;2.80;;;;;;;-145.70;100.00;63560.63;5039209;28;20121;-66
2023/09/03 10:25:46;;;;;;;5.18;2.78;;;;;;;-145.70;100.00;63560.63;5042097;28;20033;-69
2023/09/03 10:28:16;;;;;;;7.50;3.00;;;;;;;-145.70;100.00;63560.63;5019984;28;20060;-68
2023/09/03 10:30:42;;;;;;;5.43;3.00;;;;;;;-145.70;100.00;63560.63;5041306;28;20037;-65
2023/09/03 10:33:09;;;;;;;6.70;3.30;;;;;;;-145.70;100.00;63560.63;5037174;28;20162;-66
2023/09/03 10:35:34;;;;;;;5.70;2.95;;;;;;;-145.70;100.00;63560.63;5021759;28;20033;-68
2023/09/03 10:38:00;;;;;;;6.18;3.20;;;;;;;-145.70;100.00;63560.63;5047851;28;20047;-66
2023/09/03 10:40:28;;;;;;;6.63;3.00;;;;;;;-145.70;100.00;63560.63;5035818;28;20029;-68
2023/09/03 10:43:22;;;;;;;5.88;3.13;;;;;;;-145.70;100.00;63560.63;5016316;28;20056;-67
2023/09/03 10:46:05;;;;;;;6.30;3.10;;;;;;;-145.70;100.00;63560.63;5034141;28;20480;-68
2023/09/03 10:48:31;;;;;;;5.88;3.22;;;;;;;-145.70;100.00;63560.63;5022571;28;20082;-70
2023/09/03 10:50:58;;;;;;;5.43;3.17;;;;;;;-145.70;100.00;63560.63;5020721;28;20059;-67
2023/09/03 10:53:41;;;;;;;5.75;3.10;;;;;;;-145.70;100.00;63560.63;5043419;28;20045;-67
2023/09/03 10:56:12;;;;;;;6.28;3.08;;;;;;;-145.70;100.00;63560.63;5043173;28;20235;-69
2023/09/03 10:58:58;;;;;;;6.72;2.70;;;;;;;-145.70;100.00;63560.63;5041552;28;20487;-66
2023/09/03 11:01:31;;;;;;;6.60;2.80;;;;;;;-145.70;100.00;63560.63;5039801;28;20889;-67
2023/09/03 11:03:58;;;;;;;5.32;3.08;;;;;;;-145.70;100.00;63560.63;5036733;28;20042;-67
2023/09/03 11:06:24;;;;;;;6.05;2.95;;;;;;;-145.70;100.00;63560.63;5014721;28;20037;-69
2023/09/03 11:08:58;;;;;;;5.93;3.00;;;;;;;-145.70;100.00;63560.63;5037280;28;20032;-68
2023/09/03 11:11:28;;;;;;;6.70;3.22;;;;;;;-145.70;100.00;63560.63;5038828;28;20025;-65
2023/09/03 11:13:55;;;;;;;8.02;3.13;;;;;;;-145.70;100.00;63560.63;5023755;28;20036;-67
2023/09/03 11:16:28;;;;;;;5.68;2.95;;;;;;;-145.70;100.00;63560.63;5040602;28;20028;-66